createdAt,value
2022-08-14T00:01:36.820Z,5.32
2022-08-14T00:04:35.163Z,4.75
2022-08-14T00:06:51.541Z,3.00
2022-08-14T00:09:19.331Z,3.17
2022-08-14T00:11:47.438Z,2.63
2022-08-14T00:14:17.336Z,2.88
2022-08-14T00:16:45.294Z,2.95
2022-08-14T00:19:19.277Z,3.10
2022-08-14T00:21:49.997Z,3.20
2022-08-14T00:24:28.668Z,2.70
2022-08-14T00:27:02.269Z,2.50
2022-08-14T00:29:33.132Z,2.58
2022-08-14T00:32:52.914Z,2.70
2022-08-14T00:34:57.066Z,2.85
2022-08-14T00:37:24.813Z,2.42
2022-08-14T00:39:52.051Z,2.60
2022-08-14T00:42:55.509Z,2.50
2022-08-14T00:45:12.293Z,2.35
2022-08-14T00:47:44.928Z,2.30
2022-08-14T00:50:17.688Z,2.67
2022-08-14T00:52:50.692Z,2.90
2022-08-14T00:57:44.939Z,2.42
2022-08-14T01:00:26.755Z,2.70
2022-08-14T01:03:02.215Z,2.30
2022-08-14T01:05:50.830Z,2.38
2022-08-14T01:08:57.664Z,2.75
2022-08-14T01:11:08.203Z,2.60
2022-08-14T01:13:42.598Z,2.35
2022-08-14T01:16:15.420Z,2.28
2022-08-14T01:19:02.465Z,2.75
2022-08-14T01:21:46.832Z,2.60
2022-08-14T01:24:15.492Z,2.83
2022-08-14T01:26:53.271Z,2.55
2022-08-14T01:29:35.170Z,2.20
2022-08-14T01:32:10.525Z,2.75
2022-08-14T01:35:18.511Z,2.60
2022-08-14T01:37:25.615Z,2.55
2022-08-14T01:39:54.439Z,2.25
2022-08-14T01:42:31.848Z,2.42
2022-08-14T01:45:11.747Z,2.63
2022-08-14T01:47:38.953Z,2.72
2022-08-14T01:50:07.980Z,2.70
2022-08-14T01:52:58.096Z,2.45
2022-08-14T01:55:30.476Z,2.47
2022-08-14T01:58:02.160Z,2.60
2022-08-14T02:00:48.121Z,2.60
2022-08-14T02:03:16.134Z,2.67
2022-08-14T02:05:43.861Z,2.85
2022-08-14T02:08:11.190Z,2.70
2022-08-14T02:10:46.952Z,2.80
2022-08-14T02:13:16.265Z,2.55
2022-08-14T02:15:44.172Z,2.70
2022-08-14T02:18:11.745Z,2.53
2022-08-14T02:20:42.527Z,2.50
2022-08-14T02:23:09.749Z,2.40
2022-08-14T02:25:39.463Z,2.53
2022-08-14T02:28:23.308Z,2.78
2022-08-14T02:30:54.612Z,2.30
2022-08-14T02:33:22.566Z,2.58
2022-08-14T02:35:53.313Z,2.80
2022-08-14T02:38:30.546Z,2.65
2022-08-14T02:41:02.215Z,2.42
2022-08-14T02:43:46.031Z,2.40
2022-08-14T02:46:20.133Z,2.70
2022-08-14T02:49:02.051Z,2.53
2022-08-14T02:51:33.275Z,2.88
2022-08-14T02:54:01.817Z,2.50
2022-08-14T02:57:14.373Z,2.58
2022-08-14T02:59:18.445Z,2.80
2022-08-14T03:01:51.164Z,2.70
2022-08-14T03:04:22.495Z,2.22
2022-08-14T03:06:57.941Z,2.60
2022-08-14T03:09:41.931Z,2.60
2022-08-14T03:12:27.219Z,2.50
2022-08-14T03:15:02.426Z,2.60
2022-08-14T03:17:32.073Z,2.30
2022-08-14T03:20:12.009Z,2.80
2022-08-14T03:22:41.985Z,3.33
2022-08-14T03:25:10.024Z,2.97
2022-08-14T03:27:47.791Z,2.63
2022-08-14T03:30:15.862Z,2.17
2022-08-14T03:32:50.673Z,3.03
2022-08-14T03:35:19.732Z,2.53
2022-08-14T03:39:10.890Z,2.65
2022-08-14T03:40:34.278Z,2.60
2022-08-14T03:43:05.623Z,2.22
2022-08-14T03:45:35.682Z,2.53
2022-08-14T03:48:30.627Z,2.50
2022-08-14T03:50:59.672Z,2.83
2022-08-14T03:53:28.722Z,2.47
2022-08-14T03:55:59.046Z,2.70
2022-08-14T03:58:35.070Z,2.65
2022-08-14T04:01:04.213Z,2.55
2022-08-14T04:03:34.357Z,2.60
2022-08-14T04:06:05.115Z,2.50
2022-08-14T04:08:35.576Z,2.88
2022-08-14T04:11:07.996Z,2.72
2022-08-14T04:13:39.416Z,2.95
2022-08-14T04:16:22.761Z,2.38
2022-08-14T04:18:55.598Z,2.45
2022-08-14T04:23:57.247Z,2.45
2022-08-14T04:26:42.200Z,2.72
2022-08-14T04:29:15.026Z,2.78
2022-08-14T04:32:58.105Z,2.42
2022-08-14T04:34:30.058Z,2.63
2022-08-14T04:37:21.903Z,2.75
2022-08-14T04:40:08.570Z,2.40
2022-08-14T04:42:54.941Z,2.67
2022-08-14T04:45:23.757Z,2.75
2022-08-14T04:48:10.387Z,2.42
2022-08-14T04:50:44.687Z,2.85
2022-08-14T04:53:23.067Z,2.67
2022-08-14T04:55:53.727Z,2.45
2022-08-14T04:58:32.260Z,2.63
2022-08-14T05:01:01.058Z,2.70
2022-08-14T05:03:32.994Z,2.83
2022-08-14T05:06:01.160Z,2.70
2022-08-14T05:08:31.887Z,2.53
2022-08-14T05:11:13.242Z,2.50
2022-08-14T05:14:17.009Z,2.78
2022-08-14T05:16:31.055Z,2.80
2022-08-14T05:19:17.870Z,2.25
2022-08-14T05:22:00.240Z,2.50
2022-08-14T05:24:33.343Z,2.55
2022-08-14T05:27:02.299Z,2.60
2022-08-14T05:29:31.141Z,2.28
2022-08-14T05:32:01.123Z,2.60
2022-08-14T05:34:31.602Z,2.28
2022-08-14T05:37:02.195Z,2.20
2022-08-14T05:39:31.326Z,2.30
2022-08-14T05:41:58.945Z,2.10
2022-08-14T05:44:30.307Z,2.08
2022-08-14T05:46:58.554Z,2.47
2022-08-14T05:49:33.242Z,2.35
2022-08-14T05:52:01.928Z,2.22
2022-08-14T05:54:33.958Z,2.40
2022-08-14T05:57:03.032Z,2.17
2022-08-14T05:59:38.848Z,2.42
2022-08-14T06:02:11.259Z,2.45
2022-08-14T06:04:48.040Z,2.50
2022-08-14T06:07:16.962Z,2.40
2022-08-14T06:09:50.934Z,2.47
2022-08-14T06:12:31.627Z,2.30
2022-08-14T06:15:08.259Z,2.00
2022-08-14T06:17:58.604Z,2.40
2022-08-14T06:20:27.926Z,2.17
2022-08-14T06:22:56.182Z,2.30
2022-08-14T06:25:23.682Z,2.10
2022-08-14T06:27:52.269Z,2.20
2022-08-14T06:30:20.742Z,2.08
2022-08-14T06:32:52.268Z,2.00
2022-08-14T06:35:22.861Z,2.28
2022-08-14T06:37:49.935Z,1.67
2022-08-14T06:40:26.980Z,2.10
2022-08-14T06:42:56.054Z,2.42
2022-08-14T06:45:26.125Z,1.80
2022-08-14T06:47:54.037Z,2.00
2022-08-14T06:50:29.903Z,2.28
2022-08-14T06:52:58.553Z,2.25
2022-08-14T06:55:27.754Z,1.83
2022-08-14T06:57:55.949Z,1.98
2022-08-14T07:00:27.219Z,2.00
2022-08-14T07:03:16.366Z,1.75
2022-08-14T07:05:55.738Z,1.75
2022-08-14T07:08:31.637Z,1.60
2022-08-14T07:11:04.212Z,1.70
2022-08-14T07:13:31.561Z,2.00
2022-08-14T07:16:00.826Z,1.60
2022-08-14T07:18:33.979Z,1.83
2022-08-14T07:21:01.895Z,2.00
2022-08-14T07:23:31.062Z,1.98
2022-08-14T07:25:59.318Z,1.75
2022-08-14T07:28:26.574Z,2.00
2022-08-14T07:31:04.277Z,2.05
2022-08-14T07:33:50.328Z,2.03
2022-08-14T07:36:27.204Z,2.20
2022-08-14T07:38:57.821Z,2.10
2022-08-14T07:41:24.959Z,2.10
2022-08-14T07:44:28.769Z,1.92
2022-08-14T07:46:49.091Z,1.90
2022-08-14T07:49:17.747Z,2.10
2022-08-14T07:51:45.613Z,1.60
2022-08-14T07:54:23.350Z,2.05
2022-08-14T07:57:00.016Z,1.80
2022-08-14T07:59:40.837Z,1.60
2022-08-14T08:02:18.815Z,2.00
2022-08-14T08:04:47.459Z,1.95
2022-08-14T08:07:16.795Z,2.05
2022-08-14T08:09:45.812Z,1.90
2022-08-14T08:12:15.834Z,2.00
2022-08-14T08:14:55.516Z,2.00
2022-08-14T08:17:34.480Z,2.20
2022-08-14T08:20:02.298Z,1.77
2022-08-14T08:22:32.346Z,1.80
2022-08-14T08:25:00.781Z,1.55
2022-08-14T08:27:28.055Z,1.73
2022-08-14T08:30:03.761Z,2.05
2022-08-14T08:32:41.484Z,1.90
2022-08-14T08:35:21.735Z,1.88
2022-08-14T08:38:01.136Z,2.20
2022-08-14T08:40:31.507Z,2.13
2022-08-14T08:43:00.997Z,2.30
2022-08-14T08:45:28.690Z,2.40
2022-08-14T08:47:55.822Z,2.20
2022-08-14T08:52:59.175Z,2.30
2022-08-14T08:55:30.745Z,2.28
2022-08-14T08:57:59.340Z,2.17
2022-08-14T09:00:29.907Z,2.40
2022-08-14T09:03:01.921Z,2.63
2022-08-14T09:05:29.077Z,2.65
2022-08-14T09:07:56.779Z,2.72
2022-08-14T09:10:27.067Z,2.70
2022-08-14T09:12:56.223Z,2.33
2022-08-14T09:15:24.209Z,2.13
2022-08-14T09:17:51.613Z,2.63
2022-08-14T09:20:26.498Z,2.30
2022-08-14T09:22:59.212Z,2.40
2022-08-14T09:25:59.889Z,2.40
2022-08-14T09:28:14.293Z,2.38
2022-08-14T09:31:00.885Z,2.75
2022-08-14T09:33:56.450Z,2.20
2022-08-14T09:36:39.157Z,2.35
2022-08-14T09:39:29.494Z,2.65
2022-08-14T09:42:22.026Z,2.95
2022-08-14T09:45:08.580Z,2.83
2022-08-14T09:47:45.483Z,2.90
2022-08-14T09:50:16.812Z,2.60
2022-08-14T09:52:55.053Z,2.70
2022-08-14T09:55:26.058Z,2.60
2022-08-14T09:58:07.598Z,2.85
2022-08-14T10:00:42.378Z,3.10
2022-08-14T10:03:09.803Z,2.90
2022-08-14T10:05:39.549Z,2.80
2022-08-14T10:08:17.179Z,2.97
2022-08-14T10:10:57.084Z,3.38
2022-08-14T10:13:42.887Z,2.97
2022-08-14T10:16:21.728Z,2.85
2022-08-14T10:19:07.436Z,2.85
2022-08-14T10:21:38.952Z,3.50
2022-08-14T10:24:36.392Z,3.20
2022-08-14T10:27:04.318Z,3.42
2022-08-14T10:29:40.467Z,3.25
2022-08-14T10:32:18.348Z,3.33
2022-08-14T10:35:14.517Z,2.67
2022-08-14T10:37:50.623Z,3.03
2022-08-14T10:40:38.265Z,3.50
2022-08-14T10:43:17.170Z,2.90
2022-08-14T10:46:03.892Z,2.47
2022-08-14T10:48:45.671Z,3.30
2022-08-14T10:51:13.504Z,3.40
2022-08-14T10:53:40.686Z,2.70
2022-08-14T10:56:21.821Z,2.90
2022-08-14T10:59:02.468Z,2.75
2022-08-14T11:01:41.121Z,2.90
2022-08-14T11:04:20.312Z,3.00
2022-08-14T11:06:56.792Z,2.70
2022-08-14T11:09:25.945Z,2.90
2022-08-14T11:12:34.796Z,3.03
2022-08-14T11:14:51.194Z,3.08
2022-08-14T11:17:28.562Z,2.80
2022-08-14T11:20:00.939Z,2.80
2022-08-14T11:23:03.018Z,3.13
2022-08-14T11:25:21.179Z,2.72
2022-08-14T11:27:49.447Z,3.25
2022-08-14T11:30:50.487Z,2.75
2022-08-14T11:33:07.565Z,3.08
2022-08-14T11:35:47.534Z,2.63
2022-08-14T11:38:17.150Z,2.90
2022-08-14T11:40:46.788Z,2.83
2022-08-14T11:43:14.799Z,2.90
2022-08-14T11:45:45.493Z,2.75
2022-08-14T11:49:02.164Z,2.90
2022-08-14T11:51:12.617Z,3.05
2022-08-14T11:53:43.510Z,2.80
2022-08-14T11:56:13.247Z,2.63
2022-08-14T11:58:40.556Z,2.90
2022-08-14T12:01:09.934Z,2.78
2022-08-14T12:03:51.788Z,2.78
2022-08-14T12:06:29.620Z,3.03
2022-08-14T12:09:08.873Z,2.80
2022-08-14T12:11:44.260Z,2.83
2022-08-14T12:14:30.903Z,2.97
2022-08-14T12:17:12.799Z,2.90
2022-08-14T12:19:51.143Z,3.00
2022-08-14T12:22:29.656Z,3.28
2022-08-14T12:24:57.862Z,3.20
2022-08-14T12:27:35.460Z,3.10
2022-08-14T12:30:09.289Z,2.95
2022-08-14T12:32:48.415Z,3.03
2022-08-14T12:35:15.563Z,3.40
2022-08-14T12:37:49.642Z,2.90
2022-08-14T12:40:19.647Z,2.97
2022-08-14T12:42:56.483Z,3.60
2022-08-14T12:45:31.381Z,2.92
2022-08-14T12:48:01.218Z,3.13
2022-08-14T12:50:49.904Z,3.10
2022-08-14T12:53:17.552Z,3.05
2022-08-14T12:56:17.809Z,2.80
2022-08-14T12:58:51.863Z,2.90
2022-08-14T13:01:20.912Z,3.33
2022-08-14T13:03:51.867Z,2.70
2022-08-14T13:06:20.414Z,2.92
2022-08-14T13:08:53.111Z,3.33
2022-08-14T13:11:23.778Z,2.97
2022-08-14T13:13:53.645Z,2.83
2022-08-14T13:16:37.712Z,3.50
2022-08-14T13:21:58.475Z,2.70
2022-08-14T13:24:20.949Z,3.08
2022-08-14T13:26:53.722Z,3.05
2022-08-14T13:29:25.313Z,3.38
2022-08-14T13:31:55.054Z,2.93
2022-08-14T13:34:23.718Z,3.15
2022-08-14T13:36:54.558Z,3.05
2022-08-14T13:39:26.816Z,2.78
2022-08-14T13:41:56.070Z,3.20
2022-08-14T13:44:26.934Z,3.42
2022-08-14T13:46:54.080Z,3.05
2022-08-14T13:49:24.004Z,3.15
2022-08-14T13:51:53.345Z,3.13
2022-08-14T13:54:22.524Z,2.70
2022-08-14T13:56:49.946Z,2.97
2022-08-14T13:59:20.303Z,2.60
2022-08-14T14:02:04.879Z,2.95
2022-08-14T14:04:33.264Z,2.95
2022-08-14T14:07:03.294Z,3.00
2022-08-14T14:09:50.843Z,2.83
2022-08-14T14:12:36.730Z,2.70
2022-08-14T14:15:06.886Z,2.80
2022-08-14T14:17:38.995Z,2.85
2022-08-14T14:20:07.721Z,2.50
2022-08-14T14:23:02.245Z,2.70
2022-08-14T14:25:25.986Z,2.40
2022-08-14T14:28:16.755Z,2.50
2022-08-14T14:30:54.458Z,2.40
2022-08-14T14:33:45.138Z,2.80
2022-08-14T14:36:15.249Z,2.63
2022-08-14T14:38:52.094Z,2.80
2022-08-14T14:41:21.246Z,2.63
2022-08-14T14:43:51.598Z,2.83
2022-08-14T14:46:19.704Z,2.42
2022-08-14T14:48:54.443Z,2.70
2022-08-14T14:51:22.547Z,2.50
2022-08-14T14:53:49.911Z,2.50
2022-08-14T14:56:47.641Z,2.63
2022-08-14T14:59:04.730Z,2.50
2022-08-14T15:01:35.489Z,2.60
2022-08-14T15:04:07.929Z,2.28
2022-08-14T15:06:35.817Z,2.20
2022-08-14T15:09:04.798Z,2.70
2022-08-14T15:11:32.358Z,2.65
2022-08-14T15:14:00.466Z,2.40
2022-08-14T15:16:28.200Z,2.40
2022-08-14T15:18:55.380Z,2.20
2022-08-14T15:21:23.205Z,2.08
2022-08-14T15:23:52.067Z,2.55
2022-08-14T15:26:24.056Z,2.55
2022-08-14T15:29:07.140Z,2.70
2022-08-14T15:31:36.006Z,2.80
2022-08-14T15:34:44.933Z,2.50
2022-08-14T15:37:00.923Z,2.35
2022-08-14T15:39:35.556Z,2.55
2022-08-14T15:42:04.246Z,2.80
2022-08-14T15:44:44.656Z,2.35
2022-08-14T15:47:28.792Z,2.20
2022-08-14T15:49:59.293Z,2.40
2022-08-14T15:52:32.852Z,2.38
2022-08-14T15:55:14.749Z,2.63
2022-08-14T15:58:02.358Z,2.40
2022-08-14T16:00:51.759Z,2.30
2022-08-14T16:03:27.298Z,2.30
2022-08-14T16:06:10.560Z,2.33
2022-08-14T16:08:42.783Z,2.90
2022-08-14T16:11:10.553Z,2.45
2022-08-14T16:13:44.259Z,2.10
2022-08-14T16:16:47.770Z,2.00
2022-08-14T16:19:09.786Z,2.53
2022-08-14T16:21:39.177Z,2.40
2022-08-14T16:24:06.642Z,2.50
2022-08-14T16:26:34.901Z,2.38
2022-08-14T16:29:04.748Z,2.17
2022-08-14T16:31:35.620Z,2.47
2022-08-14T16:34:43.722Z,2.28
2022-08-14T16:36:53.145Z,2.35
2022-08-14T16:39:21.709Z,2.05
2022-08-14T16:41:51.031Z,2.40
2022-08-14T16:44:21.789Z,2.28
2022-08-14T16:47:02.237Z,2.17
2022-08-14T16:49:50.485Z,2.65
2022-08-14T16:52:25.454Z,2.40
2022-08-14T16:55:09.222Z,2.13
2022-08-14T16:57:47.929Z,2.45
2022-08-14T17:00:43.585Z,3.70
2022-08-14T17:03:16.889Z,2.20
2022-08-14T17:05:46.827Z,2.38
2022-08-14T17:08:32.532Z,2.53
2022-08-14T17:11:10.880Z,2.42
2022-08-14T17:13:58.267Z,2.58
2022-08-14T17:16:33.115Z,2.42
2022-08-14T17:19:05.402Z,2.17
2022-08-14T17:21:37.471Z,2.10
2022-08-14T17:26:55.162Z,2.25
2022-08-14T17:29:23.163Z,2.58
2022-08-14T17:32:02.216Z,2.30
2022-08-14T17:34:46.820Z,2.45
2022-08-14T17:37:55.949Z,2.17
2022-08-14T17:40:26.423Z,2.58
2022-08-14T17:42:55.726Z,2.42
2022-08-14T17:45:41.170Z,2.45
2022-08-14T17:49:14.473Z,2.58
2022-08-14T17:51:12.201Z,2.63
2022-08-14T17:53:52.764Z,2.97
2022-08-14T17:56:20.872Z,2.55
2022-08-14T17:58:49.280Z,2.47
2022-08-14T18:01:23.552Z,2.40
2022-08-14T18:03:54.130Z,2.30
2022-08-14T18:06:57.236Z,2.17
2022-08-14T18:09:25.405Z,2.38
2022-08-14T18:11:55.397Z,2.63
2022-08-14T18:14:32.005Z,3.00
2022-08-14T18:17:01.437Z,2.60
2022-08-14T18:19:30.359Z,2.53
2022-08-14T18:21:58.473Z,2.30
2022-08-14T18:24:29.423Z,3.30
2022-08-14T18:27:09.337Z,3.25
2022-08-14T18:29:42.541Z,3.33
2022-08-14T18:32:28.431Z,3.45
2022-08-14T18:34:59.974Z,3.33
2022-08-14T18:37:27.384Z,3.10
2022-08-14T18:40:03.526Z,3.00
2022-08-14T18:42:35.243Z,3.10
2022-08-14T18:45:12.583Z,2.87
2022-08-14T18:48:14.875Z,2.90
2022-08-14T18:50:32.173Z,3.00
2022-08-14T18:53:07.319Z,3.17
2022-08-14T18:55:34.456Z,3.38
2022-08-14T18:58:01.577Z,3.20
2022-08-14T19:00:33.415Z,2.90
2022-08-14T19:03:01.546Z,3.08
2022-08-14T19:05:47.710Z,3.47
2022-08-14T19:08:16.714Z,2.85
2022-08-14T19:10:45.598Z,3.22
2022-08-14T19:13:48.787Z,2.78
2022-08-14T19:16:22.798Z,3.10
2022-08-14T19:19:00.523Z,2.95
2022-08-14T19:21:28.106Z,3.08
2022-08-14T19:24:27.618Z,3.50
2022-08-14T19:27:16.497Z,3.10
2022-08-14T19:29:47.900Z,3.75
2022-08-14T19:32:36.572Z,3.47
2022-08-14T19:35:17.017Z,2.83
2022-08-14T19:37:52.143Z,2.90
2022-08-14T19:40:29.215Z,2.50
2022-08-14T19:42:59.368Z,2.33
2022-08-14T19:45:27.710Z,2.38
2022-08-14T19:47:57.780Z,2.15
2022-08-14T19:50:38.254Z,2.25
2022-08-14T19:53:11.226Z,2.63
2022-08-14T19:55:45.613Z,2.50
2022-08-14T19:58:13.404Z,2.33
2022-08-14T20:00:52.265Z,2.22
2022-08-14T20:03:24.183Z,2.10
2022-08-14T20:06:05.696Z,2.33
2022-08-14T20:09:06.136Z,2.38
2022-08-14T20:12:00.656Z,2.17
2022-08-14T20:14:20.352Z,2.38
2022-08-14T20:16:50.409Z,2.20
2022-08-14T20:19:20.001Z,2.20
2022-08-14T20:21:58.372Z,2.35
2022-08-14T20:24:40.932Z,2.00
2022-08-14T20:27:33.586Z,2.60
2022-08-14T20:32:55.884Z,2.60
2022-08-14T20:35:25.922Z,2.78
2022-08-14T20:38:29.866Z,2.45
2022-08-14T20:41:05.619Z,2.50
2022-08-14T20:43:53.316Z,2.40
2022-08-14T20:46:23.536Z,2.50
2022-08-14T20:49:05.384Z,2.58
2022-08-14T20:51:47.631Z,2.47
2022-08-14T20:54:33.416Z,2.58
2022-08-14T20:57:09.047Z,2.40
2022-08-14T20:59:43.374Z,2.40
2022-08-14T21:02:29.548Z,2.47
2022-08-14T21:05:17.118Z,2.40
2022-08-14T21:07:51.320Z,3.00
2022-08-14T21:10:36.139Z,2.70
2022-08-14T21:14:17.804Z,2.80
2022-08-14T21:16:02.858Z,2.40
2022-08-14T21:18:31.943Z,2.70
2022-08-14T21:21:00.055Z,2.42
2022-08-14T21:23:32.771Z,2.50
2022-08-14T21:26:00.306Z,2.42
2022-08-14T21:28:30.599Z,2.70
2022-08-14T21:31:02.546Z,2.50
2022-08-14T21:33:29.721Z,2.50
2022-08-14T21:36:05.991Z,2.58
2022-08-14T21:38:36.682Z,2.63
2022-08-14T21:41:41.791Z,2.80
2022-08-14T21:44:17.133Z,2.60
2022-08-14T21:46:47.597Z,2.60
2022-08-14T21:49:16.310Z,2.63
2022-08-14T21:51:54.606Z,3.00
2022-08-14T21:54:49.431Z,2.97
2022-08-14T21:57:57.041Z,3.05
2022-08-14T22:00:35.055Z,3.15
2022-08-14T22:05:29.600Z,2.83
2022-08-14T22:07:57.754Z,2.80
2022-08-14T22:10:25.943Z,2.80
2022-08-14T22:13:00.672Z,2.70
2022-08-14T22:15:28.915Z,2.50
2022-08-14T22:17:57.741Z,2.45
2022-08-14T22:20:28.681Z,2.95
2022-08-14T22:22:58.594Z,2.80
2022-08-14T22:25:33.437Z,2.70
2022-08-14T22:28:01.530Z,2.78
2022-08-14T22:30:28.719Z,3.03
2022-08-14T22:32:58.459Z,2.80
2022-08-14T22:35:27.887Z,3.15
2022-08-14T22:38:32.634Z,2.63
2022-08-14T22:41:09.233Z,2.83
2022-08-14T22:43:31.492Z,2.42
2022-08-14T22:46:02.498Z,2.70
2022-08-14T22:48:30.203Z,3.10
2022-08-14T22:50:57.766Z,2.88
2022-08-14T22:53:29.149Z,2.53
2022-08-14T22:55:56.870Z,2.45
2022-08-14T22:58:30.425Z,2.25
2022-08-14T23:01:01.454Z,3.05
2022-08-14T23:03:34.068Z,2.78
2022-08-14T23:06:02.153Z,3.05
2022-08-14T23:08:59.613Z,2.67
2022-08-14T23:11:16.571Z,2.58
2022-08-14T23:13:46.296Z,2.67
2022-08-14T23:16:20.422Z,2.40
2022-08-14T23:18:48.340Z,2.67
2022-08-14T23:21:24.433Z,3.65
2022-08-14T23:23:55.268Z,3.58
2022-08-14T23:26:49.448Z,2.60
2022-08-14T23:29:11.336Z,2.30
2022-08-14T23:31:39.409Z,2.50
2022-08-14T23:34:08.203Z,2.50
2022-08-14T23:36:37.534Z,2.42
2022-08-14T23:39:21.176Z,2.63
2022-08-14T23:41:53.727Z,2.53
2022-08-14T23:44:24.684Z,2.40
2022-08-14T23:47:00.596Z,2.47
2022-08-14T23:49:56.578Z,2.50
2022-08-14T23:52:55.484Z,2.50
2022-08-14T23:55:06.247Z,2.72
2022-08-14T23:57:44.056Z,2.78
